Time;durP1;ratioP1;P1;durP2;ratioP2;P2;SDS_P1;SDS_P2;PMS_P1;PMS_P2;Temp;Humidity;BMP_temperature;BMP_pressure;BME280_temperature;BME280_humidity;BME280_pressure;Samples;Min_cycle;Max_cycle;Signal;HPM_P1;HPM_P2
2021/06/14 00:00:11;;;;;;;0.00;0.00;;;;;;;21.19;52.27;102479.22;5069188;28;20029;-83
2021/06/14 00:02:39;;;;;;;0.00;0.00;;;;;;;21.16;51.88;102485.59;5051100;28;20399;-83
2021/06/14 00:05:09;;;;;;;0.55;0.55;;;;;;;21.12;52.27;102478.56;5068328;28;20024;-84
2021/06/14 00:07:35;;;;;;;0.98;0.47;;;;;;;21.07;52.27;102480.56;5057377;28;20036;-84
2021/06/14 00:10:02;;;;;;;0.00;0.00;;;;;;;21.06;52.43;102468.91;5069860;28;20025;-83
2021/06/14 00:12:29;;;;;;;0.10;0.10;;;;;;;21.02;53.01;102475.31;5061555;28;20497;-84
2021/06/14 00:14:55;;;;;;;0.10;0.10;;;;;;;21.01;52.61;102479.00;5062584;28;20026;-83
2021/06/14 00:17:22;;;;;;;0.00;0.00;;;;;;;21.00;52.66;102469.13;5069537;28;20498;-84
2021/06/14 00:19:48;;;;;;;0.00;0.00;;;;;;;20.96;52.98;102473.75;5057510;28;20494;-84
2021/06/14 00:22:17;;;;;;;0.10;0.10;;;;;;;20.93;52.60;102463.09;5066242;28;20025;-82
2021/06/14 00:24:43;;;;;;;0.00;0.00;;;;;;;20.88;53.03;102459.69;5054450;28;20068;-83
2021/06/14 00:27:11;;;;;;;0.10;0.10;;;;;;;20.84;53.22;102458.06;5060209;28;20032;-83
2021/06/14 00:29:38;;;;;;;0.10;0.10;;;;;;;20.78;53.34;102461.84;5070095;28;20036;-83
2021/06/14 00:32:05;;;;;;;0.40;0.40;;;;;;;20.74;53.29;102462.03;5058766;28;20029;-85
2021/06/14 00:34:31;;;;;;;0.00;0.00;;;;;;;20.67;53.60;102451.47;5065255;28;20033;-83
2021/06/14 00:36:58;;;;;;;0.40;0.40;;;;;;;20.64;53.14;102456.09;5065896;28;20459;-84
2021/06/14 00:39:24;;;;;;;0.10;0.10;;;;;;;20.59;53.27;102456.25;5057028;28;20082;-85
2021/06/14 00:41:51;;;;;;;0.00;0.00;;;;;;;20.57;53.14;102450.03;5070523;28;20070;-83
2021/06/14 00:44:17;;;;;;;0.00;0.00;;;;;;;20.54;53.13;102458.22;5060104;28;20028;-83
2021/06/14 00:46:43;;;;;;;0.10;0.10;;;;;;;20.50;53.53;102448.50;5063664;28;20037;-84
2021/06/14 00:49:10;;;;;;;0.10;0.10;;;;;;;20.45;53.72;102439.69;5066937;28;20036;-83
2021/06/14 00:51:36;;;;;;;0.00;0.00;;;;;;;20.42;53.57;102442.53;5057316;28;20021;-83
2021/06/14 00:54:03;;;;;;;0.10;0.10;;;;;;;20.38;53.04;102432.81;5068829;28;20352;-82
2021/06/14 00:56:30;;;;;;;0.10;0.10;;;;;;;20.34;53.76;102435.59;5061775;28;20017;-83
2021/06/14 00:58:57;;;;;;;0.22;0.22;;;;;;;20.33;53.69;102436.53;5060985;28;20029;-84
2021/06/14 01:01:23;;;;;;;0.10;0.10;;;;;;;20.27;53.97;102420.59;5067056;28;20020;-82
2021/06/14 01:03:50;;;;;;;0.88;0.85;;;;;;;20.24;53.86;102420.72;5069611;28;20029;-84
2021/06/14 01:06:16;;;;;;;0.00;0.00;;;;;;;20.22;54.03;102414.50;5058322;28;20406;-82
2021/06/14 01:08:48;;;;;;;0.13;0.13;;;;;;;20.20;54.45;102411.88;5054513;28;20043;-83
2021/06/14 01:14:13;;;;;;;0.10;0.10;;;;;;;20.18;54.31;102404.78;5111267;27;20150;-83
2021/06/14 01:16:53;;;;;;;0.10;0.10;;;;;;;20.17;54.14;102403.88;5110993;28;20031;-83
2021/06/14 01:19:59;;;;;;;0.00;0.00;;;;;;;20.18;53.90;102394.88;5110799;28;20039;-84
2021/06/14 01:25:19;;;;;;;0.20;0.20;;;;;;;20.08;53.85;102384.53;5100323;27;20166;-84
2021/06/14 01:27:51;;;;;;;0.20;0.20;;;;;;;20.02;54.27;102386.47;5073786;28;20048;-84
2021/06/14 01:30:21;;;;;;;0.20;0.20;;;;;;;20.00;54.52;102382.97;5086002;28;20143;-82
2021/06/14 01:32:49;;;;;;;0.10;0.10;;;;;;;19.95;54.77;102384.97;5079671;28;20279;-83
2021/06/14 01:35:19;;;;;;;0.17;0.17;;;;;;;19.95;54.48;102376.00;5085833;28;20032;-83
2021/06/14 01:37:49;;;;;;;0.10;0.10;;;;;;;19.92;54.82;102376.97;5073517;28;20048;-84
2021/06/14 01:40:18;;;;;;;0.08;0.08;;;;;;;19.91;54.45;102371.66;5084425;28;20047;-82
2021/06/14 01:42:48;;;;;;;0.00;0.00;;;;;;;19.87;55.07;102373.56;5080259;28;20028;-82
2021/06/14 01:45:16;;;;;;;0.00;0.00;;;;;;;19.84;54.81;102373.69;5076059;28;20020;-83
2021/06/14 01:47:45;;;;;;;1.45;1.35;;;;;;;19.81;54.84;102376.44;5086903;28;20024;-82
2021/06/14 01:50:12;;;;;;;0.10;0.10;;;;;;;19.81;54.85;102376.44;5076134;28;20021;-82
2021/06/14 01:52:39;;;;;;;0.10;0.10;;;;;;;19.79;55.06;102376.50;5080600;28;20063;-83
2021/06/14 01:55:07;;;;;;;0.65;0.65;;;;;;;19.81;54.39;102368.38;5083867;28;20024;-83
2021/06/14 01:57:34;;;;;;;0.10;0.10;;;;;;;19.78;54.24;102368.50;5062270;28;20429;-83
2021/06/14 02:00:01;;;;;;;0.05;0.05;;;;;;;19.75;54.81;102360.53;5054721;28;20028;-84
2021/06/14 02:02:29;;;;;;;0.00;0.00;;;;;;;19.75;54.58;102357.84;5070912;28;20160;-83
2021/06/14 02:04:58;;;;;;;0.00;0.00;;;;;;;19.69;55.04;102358.94;5077848;28;20043;-85
2021/06/14 02:07:25;;;;;;;0.38;0.35;;;;;;;19.67;55.49;102356.28;5085850;28;20028;-82
2021/06/14 02:09:54;;;;;;;0.50;0.50;;;;;;;19.66;55.24;102354.50;5073111;28;20027;-83
2021/06/14 02:12:21;;;;;;;0.08;0.08;;;;;;;19.67;54.93;102360.78;5082772;28;20060;-82
2021/06/14 02:14:48;;;;;;;0.47;0.47;;;;;;;19.62;55.20;102352.88;5080369;28;20032;-83
2021/06/14 02:17:20;;;;;;;0.00;0.00;;;;;;;19.60;55.60;102349.38;5075295;28;20032;-83
2021/06/14 02:19:48;;;;;;;0.10;0.10;;;;;;;19.61;55.12;102355.63;5085949;28;20029;-83
2021/06/14 02:22:17;;;;;;;0.20;0.20;;;;;;;19.57;55.33;102354.84;5075821;28;20130;-83
2021/06/14 02:24:44;;;;;;;0.10;0.10;;;;;;;19.55;55.40;102351.31;5078882;28;20043;-83
2021/06/14 02:27:12;;;;;;;0.10;0.10;;;;;;;19.53;55.49;102356.75;5083452;28;20109;-83
2021/06/14 02:29:39;;;;;;;0.10;0.10;;;;;;;19.49;55.60;102351.53;5072687;28;20116;-84
2021/06/14 02:32:07;;;;;;;0.00;0.00;;;;;;;19.47;55.85;102350.72;5084690;28;20036;-83
2021/06/14 02:34:35;;;;;;;0.30;0.30;;;;;;;19.44;55.87;102349.00;5074859;28;20447;-83
2021/06/14 02:37:03;;;;;;;0.03;0.03;;;;;;;19.43;55.90;102354.41;5063465;28;20438;-82
2021/06/14 02:39:32;;;;;;;0.10;0.10;;;;;;;19.44;55.51;102349.00;5072202;28;20036;-82
2021/06/14 02:42:00;;;;;;;0.10;0.10;;;;;;;19.42;55.54;102344.63;5059149;28;20036;-83
2021/06/14 02:44:28;;;;;;;0.30;0.30;;;;;;;19.43;55.43;102346.34;5067782;28;20044;-83
2021/06/14 02:46:57;;;;;;;0.35;0.35;;;;;;;19.42;55.66;102339.25;5067566;28;20028;-83
2021/06/14 02:49:27;;;;;;;0.00;0.00;;;;;;;19.39;55.81;102346.47;5060006;28;20060;-83
2021/06/14 02:51:57;;;;;;;5.38;0.47;;;;;;;19.38;56.03;102343.84;5072407;28;20104;-83
2021/06/14 02:54:29;;;;;;;0.10;0.10;;;;;;;19.38;55.44;102344.69;5062713;28;20056;-83
2021/06/14 02:56:59;;;;;;;0.22;0.22;;;;;;;19.36;55.43;102346.56;5063810;28;20036;-83
2021/06/14 02:59:27;;;;;;;0.45;0.45;;;;;;;19.32;55.67;102347.59;5071276;28;20036;-84
2021/06/14 03:01:55;;;;;;;0.20;0.20;;;;;;;19.32;55.61;102346.72;5052581;28;20032;-83
2021/06/14 03:04:23;;;;;;;0.10;0.10;;;;;;;19.31;55.55;102350.34;5061526;28;20545;-84
2021/06/14 03:06:52;;;;;;;0.00;0.00;;;;;;;19.31;55.70;102348.53;5064674;28;20021;-83
2021/06/14 03:09:19;;;;;;;0.10;0.10;;;;;;;19.29;55.85;102350.41;5070132;28;20021;-83
2021/06/14 03:11:46;;;;;;;0.10;0.10;;;;;;;19.27;55.70;102341.50;5058935;28;20063;-83
2021/06/14 03:14:14;;;;;;;0.10;0.10;;;;;;;19.28;55.57;102345.06;5069354;28;20107;-83
2021/06/14 03:16:43;;;;;;;0.43;0.43;;;;;;;19.28;55.58;102343.25;5064715;28;20029;-83
2021/06/14 03:19:11;;;;;;;0.20;0.20;;;;;;;19.27;55.79;102346.00;5061062;28;20040;-84
2021/06/14 03:21:38;;;;;;;0.30;0.30;;;;;;;19.27;56.05;102346.00;5071536;28;20103;-83
2021/06/14 03:24:06;;;;;;;0.00;0.00;;;;;;;19.29;55.71;102342.34;5059665;28;20036;-83
2021/06/14 03:26:39;;;;;;;0.40;0.40;;;;;;;19.30;56.07;102340.50;5066409;28;20472;-83
2021/06/14 03:29:07;;;;;;;0.10;0.10;;;;;;;19.26;56.11;102337.03;5067929;28;20032;-83
2021/06/14 03:31:35;;;;;;;0.10;0.10;;;;;;;19.26;55.86;102337.03;5058562;28;20029;-83
2021/06/14 03:34:03;;;;;;;0.38;0.38;;;;;;;19.26;56.26;102342.41;5069885;28;20029;-82
2021/06/14 03:36:31;;;;;;;0.15;0.15;;;;;;;19.25;55.82;102335.28;5063250;28;20031;-83
2021/06/14 03:38:59;;;;;;;0.22;0.22;;;;;;;19.23;55.96;102345.22;5062593;28;20143;-82
2021/06/14 03:41:26;;;;;;;0.40;0.40;;;;;;;19.23;55.88;102354.16;5070924;28;20453;-85
2021/06/14 03:43:53;;;;;;;0.57;0.57;;;;;;;19.22;56.16;102351.53;5057796;28;20039;-83
2021/06/14 03:46:19;;;;;;;0.00;0.00;;;;;;;19.23;55.74;102347.91;5065784;28;20068;-84
2021/06/14 03:48:46;;;;;;;0.10;0.10;;;;;;;19.22;56.00;102354.22;5064498;28;20089;-84
2021/06/14 03:51:13;;;;;;;0.10;0.10;;;;;;;19.19;56.28;102359.66;5059298;28;20044;-83
2021/06/14 03:53:39;;;;;;;0.38;0.38;;;;;;;19.19;56.21;102365.94;5070726;28;20032;-83
2021/06/14 03:56:09;;;;;;;0.68;0.68;;;;;;;19.17;56.84;102350.78;5059597;28;20040;-83
2021/06/14 03:58:36;;;;;;;0.00;0.00;;;;;;;19.22;56.61;102354.22;5065117;28;20021;-84
2021/06/14 04:01:04;;;;;;;0.20;0.20;;;;;;;19.24;56.55;102347.00;5067274;28;20028;-83
2021/06/14 04:03:30;;;;;;;0.03;0.03;;;;;;;19.26;56.40;102353.16;5070951;28;20035;-84
2021/06/14 04:05:59;;;;;;;0.10;0.10;;;;;;;19.27;55.80;102357.63;5057958;28;20028;-83
2021/06/14 04:08:26;;;;;;;0.85;0.85;;;;;;;19.28;55.78;102354.00;5066352;28;20017;-83
2021/06/14 04:10:53;;;;;;;0.30;0.20;;;;;;;19.28;56.40;102359.38;5055115;28;20041;-84
2021/06/14 04:13:19;;;;;;;0.10;0.10;;;;;;;19.30;56.18;102356.63;5058008;28;20052;-83
2021/06/14 04:15:46;;;;;;;0.10;0.10;;;;;;;19.34;55.75;102367.25;5070420;28;20495;-84
2021/06/14 04:18:12;;;;;;;0.10;0.10;;;;;;;19.34;56.24;102359.19;5059855;28;20456;-84
2021/06/14 04:20:38;;;;;;;0.10;0.10;;;;;;;19.38;56.01;102363.53;5064548;28;20033;-84
2021/06/14 04:23:05;;;;;;;0.40;0.40;;;;;;;19.43;55.95;102370.53;5066647;28;20082;-82
2021/06/14 04:25:31;;;;;;;0.00;0.00;;;;;;;19.47;55.50;102369.53;5057464;28;20029;-84
2021/06/14 04:28:00;;;;;;;0.13;0.13;;;;;;;19.45;55.86;102372.28;5069353;28;20090;-82
2021/06/14 04:30:26;;;;;;;0.05;0.05;;;;;;;19.46;56.01;102357.88;5061876;28;20107;-83
2021/06/14 04:32:52;;;;;;;0.00;0.00;;;;;;;19.47;56.15;102348.91;5062047;28;20033;-83
2021/06/14 04:35:19;;;;;;;0.10;0.10;;;;;;;19.52;55.74;102346.06;5069171;28;20033;-83
2021/06/14 04:37:45;;;;;;;0.10;0.10;;;;;;;19.56;55.50;102358.47;5057110;28;20068;-83
2021/06/14 04:40:12;;;;;;;0.10;0.10;;;;;;;19.60;55.51;102365.50;5067858;28;20037;-82
2021/06/14 04:42:38;;;;;;;0.20;0.20;;;;;;;19.62;55.72;102363.63;5062823;28;20462;-84
2021/06/14 04:45:05;;;;;;;0.15;0.15;;;;;;;19.67;55.11;102356.28;5060178;28;20124;-83
2021/06/14 04:47:31;;;;;;;0.00;0.00;;;;;;;19.72;55.24;102348.94;5069885;28;20125;-83
2021/06/14 04:49:59;;;;;;;0.00;0.00;;;;;;;19.78;54.94;102352.38;5057418;28;20035;-84
2021/06/14 04:52:25;;;;;;;0.20;0.20;;;;;;;19.82;55.04;102348.63;5065869;28;20090;-83
2021/06/14 04:54:51;;;;;;;0.00;0.00;;;;;;;19.87;54.60;102338.63;5064500;28;20497;-81
2021/06/14 04:57:17;;;;;;;0.70;0.70;;;;;;;19.90;54.47;102335.84;5058252;28;20044;-84
2021/06/14 04:59:44;;;;;;;0.03;0.03;;;;;;;19.92;54.15;102328.56;5061847;28;20376;-82
2021/06/14 05:02:10;;;;;;;0.00;0.00;;;;;;;19.93;54.30;102327.63;5049455;28;20170;-83
2021/06/14 05:04:36;;;;;;;0.08;0.08;;;;;;;19.95;54.44;102320.41;5060273;28;20094;-84
2021/06/14 05:07:02;;;;;;;0.10;0.10;;;;;;;20.01;54.45;102312.09;5060134;28;20045;-83
2021/06/14 05:09:30;;;;;;;0.10;0.10;;;;;;;20.07;53.98;102315.50;5069222;28;20035;-82
2021/06/14 05:11:56;;;;;;;0.10;0.10;;;;;;;20.12;53.81;102306.31;5057857;28;20037;-86
2021/06/14 05:14:22;;;;;;;0.45;0.45;;;;;;;20.15;53.66;102316.06;5035503;28;20505;-82
2021/06/14 05:16:48;;;;;;;0.45;0.45;;;;;;;20.18;53.57;102308.78;5032769;28;20391;-87
2021/06/14 05:19:15;;;;;;;0.30;0.30;;;;;;;20.25;53.68;102306.75;5039808;28;20028;-83
2021/06/14 05:21:41;;;;;;;0.13;0.13;;;;;;;20.29;53.61;102303.00;5032700;28;20038;-83
2021/06/14 05:24:07;;;;;;;0.10;0.10;;;;;;;20.34;53.23;102298.31;5032199;28;20496;-83
2021/06/14 05:26:33;;;;;;;0.10;0.10;;;;;;;20.36;52.88;102301.84;5038473;28;20036;-83
2021/06/14 05:29:00;;;;;;;0.20;0.20;;;;;;;20.42;53.02;102307.91;5052098;28;20473;-84
2021/06/14 05:31:26;;;;;;;0.73;0.73;;;;;;;20.47;52.29;102314.00;5051810;28;20041;-84
2021/06/14 05:33:52;;;;;;;1.20;1.10;;;;;;;20.47;51.15;102314.00;5051463;28;20036;-84
2021/06/14 05:36:18;;;;;;;0.10;0.10;;;;;;;20.52;51.28;102317.38;5052204;28;20091;-83
2021/06/14 05:38:44;;;;;;;0.00;0.00;;;;;;;20.58;51.60;102319.84;5051683;28;20491;-83
2021/06/14 05:41:11;;;;;;;3.83;1.27;;;;;;;20.68;51.80;102323.91;5044009;28;20387;-82
2021/06/14 05:43:37;;;;;;;0.00;0.00;;;;;;;20.72;51.21;102329.25;5035721;28;20453;-83
2021/06/14 05:46:03;;;;;;;0.10;0.10;;;;;;;20.74;51.31;102330.06;5035569;28;20405;-86
2021/06/14 05:48:29;;;;;;;0.93;0.57;;;;;;;20.72;51.63;102318.47;5032154;28;20029;-83
2021/06/14 05:50:58;;;;;;;0.10;0.10;;;;;;;20.87;51.27;102312.47;5039835;28;20105;-83
2021/06/14 05:53:25;;;;;;;0.30;0.30;;;;;;;20.90;51.13;102306.97;5032161;28;20029;-83
2021/06/14 05:55:51;;;;;;;0.65;0.65;;;;;;;20.85;51.13;102307.13;5036693;28;20457;-94
2021/06/14 05:58:17;;;;;;;0.52;0.52;;;;;;;20.88;51.00;102303.44;5068163;28;20072;-84
2021/06/14 06:00:45;;;;;;;0.00;0.00;;;;;;;21.03;50.79;102301.06;5051667;28;20040;-82
2021/06/14 06:03:12;;;;;;;0.20;0.20;;;;;;;20.95;50.12;102287.94;5051376;28;20067;-84
2021/06/14 06:05:38;;;;;;;0.52;0.52;;;;;;;21.11;50.16;102286.34;5050959;28;20033;-88
2021/06/14 06:08:04;;;;;;;0.10;0.10;;;;;;;21.14;49.86;102272.72;5052194;28;20028;-83
2021/06/14 06:10:30;;;;;;;0.10;0.10;;;;;;;21.23;50.05;102271.47;5053683;28;20033;-83
2021/06/14 06:12:56;;;;;;;1.17;0.95;;;;;;;21.33;50.13;102270.16;5055724;28;20048;-83
2021/06/14 06:15:23;;;;;;;2.40;0.85;;;;;;;21.37;50.03;102273.59;5056722;28;20163;-82
2021/06/14 06:17:49;;;;;;;0.20;0.20;;;;;;;21.42;49.90;102266.19;5056092;28;20083;-83
2021/06/14 06:20:17;;;;;;;0.10;0.10;;;;;;;21.50;49.42;102266.69;5056031;28;20495;-82
2021/06/14 06:22:44;;;;;;;0.85;0.63;;;;;;;21.50;48.64;102279.31;5054378;28;20537;-82
2021/06/14 06:25:13;;;;;;;0.20;0.20;;;;;;;21.67;49.02;102275.03;5055661;28;20025;-82
2021/06/14 06:27:40;;;;;;;1.80;0.95;;;;;;;21.63;48.50;102269.78;5054900;28;20044;-82
2021/06/14 06:30:08;;;;;;;0.10;0.10;;;;;;;21.64;48.40;102273.34;5054090;28;20033;-82
2021/06/14 06:32:34;;;;;;;0.10;0.10;;;;;;;21.74;48.17;102276.53;5055572;28;20480;-82
2021/06/14 06:35:00;;;;;;;0.55;0.55;;;;;;;21.87;48.47;102258.84;5052785;28;20124;-82
2021/06/14 06:37:27;;;;;;;0.10;0.10;;;;;;;21.94;48.68;102267.53;5053002;28;20388;-82
2021/06/14 06:39:53;;;;;;;0.00;0.00;;;;;;;22.09;48.33;102255.16;5054327;28;20087;-82
2021/06/14 06:42:19;;;;;;;0.45;0.45;;;;;;;22.16;48.15;102244.94;5054745;28;20053;-83
2021/06/14 06:44:45;;;;;;;0.10;0.10;;;;;;;22.18;48.17;102233.16;5055480;28;20044;-83
2021/06/14 06:47:11;;;;;;;0.10;0.10;;;;;;;22.26;48.22;102220.13;5055725;28;20494;-82
2021/06/14 06:49:37;;;;;;;0.20;0.20;;;;;;;22.30;48.46;102227.13;5055132;28;20036;-83
2021/06/14 06:52:04;;;;;;;2.40;0.52;;;;;;;22.27;47.46;102221.91;5055706;28;20112;-82
2021/06/14 06:54:30;;;;;;;0.10;0.10;;;;;;;22.38;46.64;102228.63;5055803;28;20057;-82
2021/06/14 06:56:56;;;;;;;0.10;0.10;;;;;;;22.50;46.69;102230.75;5055604;28;20040;-83
2021/06/14 06:59:24;;;;;;;0.10;0.10;;;;;;;22.57;46.70;102224.09;5055410;28;20500;-82
2021/06/14 07:01:51;;;;;;;0.20;0.20;;;;;;;22.58;46.39;102219.56;5055827;28;20033;-84
2021/06/14 07:04:17;;;;;;;0.10;0.10;;;;;;;22.68;46.10;102209.19;5055045;28;20029;-82
2021/06/14 07:06:44;;;;;;;0.20;0.20;;;;;;;22.80;46.65;102211.28;5055699;28;20025;-83
2021/06/14 07:09:11;;;;;;;1.30;1.25;;;;;;;22.85;45.74;102217.31;5053233;28;20028;-82
2021/06/14 07:11:38;;;;;;;0.00;0.00;;;;;;;22.81;44.81;102214.88;5055103;28;20036;-82
2021/06/14 07:14:04;;;;;;;0.15;0.15;;;;;;;22.99;44.14;102215.75;5055072;28;20029;-82
2021/06/14 07:16:31;;;;;;;0.10;0.10;;;;;;;23.03;44.47;102209.22;5055572;28;20368;-84
2021/06/14 07:19:00;;;;;;;0.20;0.20;;;;;;;23.13;43.60;102207.81;5054968;28;20028;-84
2021/06/14 07:21:26;;;;;;;0.05;0.05;;;;;;;23.23;44.46;102211.81;5055293;28;20033;-83
2021/06/14 07:23:53;;;;;;;0.15;0.15;;;;;;;23.31;44.12;102208.72;5054811;28;20037;-83
2021/06/14 07:26:19;;;;;;;0.10;0.10;;;;;;;23.41;43.96;102214.50;5055199;28;20029;-83
2021/06/14 07:28:46;;;;;;;0.30;0.30;;;;;;;23.41;42.56;102214.50;5054935;28;20040;-83
2021/06/14 07:31:13;;;;;;;1.38;1.27;;;;;;;23.50;43.02;102211.34;5054658;28;20025;-83
2021/06/14 07:33:40;;;;;;;2.17;1.50;;;;;;;23.58;43.15;102206.38;5054630;28;20041;-83
2021/06/14 07:36:08;;;;;;;0.00;0.00;;;;;;;23.60;42.40;102198.16;5070486;22;20068;-85
2021/06/14 07:38:35;;;;;;;0.40;0.40;;;;;;;23.71;42.44;102208.44;5054504;28;20055;-84
2021/06/14 07:41:02;;;;;;;0.40;0.40;;;;;;;23.90;42.71;102209.19;5054252;28;20458;-87
2021/06/14 07:43:28;;;;;;;1.67;1.45;;;;;;;23.92;42.63;102210.97;5055836;28;20056;-85
2021/06/14 07:45:54;;;;;;;0.08;0.08;;;;;;;24.07;41.68;102207.41;5050189;28;20480;-84
2021/06/14 07:48:22;;;;;;;0.75;0.75;;;;;;;24.09;42.11;102200.06;5035077;28;20033;-83
2021/06/14 07:50:49;;;;;;;0.05;0.05;;;;;;;24.21;41.02;102193.97;5035757;28;20396;-82
2021/06/14 07:53:16;;;;;;;0.10;0.10;;;;;;;24.26;41.34;102207.22;5033385;28;20036;-83
2021/06/14 07:55:42;;;;;;;0.10;0.10;;;;;;;24.35;41.60;102205.81;5035616;28;20029;-84
2021/06/14 07:58:09;;;;;;;0.30;0.30;;;;;;;24.51;42.07;102204.00;5034689;28;20117;-84
2021/06/14 08:00:37;;;;;;;0.10;0.10;;;;;;;24.53;40.76;102204.78;5034974;28;20140;-84
2021/06/14 08:03:04;;;;;;;0.60;0.60;;;;;;;24.62;40.39;102203.38;5034176;28;20453;-80
2021/06/14 08:05:30;;;;;;;0.17;0.17;;;;;;;24.71;41.12;102202.00;5026044;28;20021;-83
2021/06/14 08:07:57;;;;;;;0.35;0.35;;;;;;;24.86;40.76;102189.38;5029436;28;20131;-84
2021/06/14 08:10:23;;;;;;;0.10;0.10;;;;;;;24.87;40.32;102183.88;5032156;28;20037;-84
2021/06/14 08:12:51;;;;;;;0.00;0.00;;;;;;;25.05;40.29;102178.31;5033770;28;20033;-82
2021/06/14 08:15:20;;;;;;;0.65;0.65;;;;;;;25.09;39.66;102179.00;5031297;28;20033;-82
2021/06/14 08:17:48;;;;;;;0.13;0.13;;;;;;;25.11;39.78;102183.38;5029161;28;20461;-83
2021/06/14 08:20:24;;;;;;;0.20;0.20;;;;;;;25.18;38.52;102184.75;5034934;28;20076;-83
2021/06/14 08:25:37;;;;;;;0.10;0.10;;;;;;;25.42;37.56;102197.81;5034220;28;20124;-83
2021/06/14 08:28:04;;;;;;;0.10;0.10;;;;;;;25.56;38.63;102193.34;5034473;28;20029;-83
2021/06/14 08:30:32;;;;;;;0.17;0.17;;;;;;;25.54;37.52;102195.28;5034505;28;20029;-83
2021/06/14 08:32:58;;;;;;;0.05;0.05;;;;;;;25.66;37.01;102197.25;5033683;28;20638;-83
2021/06/14 08:35:27;;;;;;;0.10;0.10;;;;;;;25.78;37.76;102185.63;5032998;28;20041;-83
2021/06/14 08:37:55;;;;;;;0.03;0.03;;;;;;;25.88;36.80;102190.44;5033864;28;20384;-83
2021/06/14 08:40:27;;;;;;;0.10;0.10;;;;;;;26.04;37.24;102187.63;5033998;28;20079;-83
2021/06/14 08:42:53;;;;;;;0.32;0.32;;;;;;;26.03;37.70;102192.16;5033778;28;20052;-83
2021/06/14 08:45:20;;;;;;;0.10;0.10;;;;;;;26.07;36.98;102196.47;5033912;28;20033;-83
2021/06/14 08:47:48;;;;;;;0.95;0.95;;;;;;;26.23;35.64;102190.03;5033775;28;20469;-83
2021/06/14 08:50:18;;;;;;;0.10;0.10;;;;;;;26.28;36.18;102185.16;5033863;28;20037;-80
2021/06/14 08:52:45;;;;;;;0.20;0.20;;;;;;;26.29;36.13;102192.34;5033570;28;20033;-83
2021/06/14 08:55:13;;;;;;;0.20;0.20;;;;;;;26.35;35.48;102191.94;5031475;28;20109;-83
2021/06/14 08:57:40;;;;;;;0.40;0.40;;;;;;;26.41;35.39;102186.13;5032775;28;20104;-83
2021/06/14 09:00:10;;;;;;;0.10;0.10;;;;;;;26.43;34.33;102191.44;5034114;28;20036;-83
2021/06/14 09:02:36;;;;;;;0.00;0.00;;;;;;;26.55;34.56;102192.47;5033678;28;20036;-83
2021/06/14 09:05:03;;;;;;;0.17;0.17;;;;;;;26.67;34.18;102185.34;5033740;28;20099;-83
2021/06/14 09:07:30;;;;;;;0.00;0.00;;;;;;;26.68;32.75;102182.53;5032793;28;20029;-82
2021/06/14 09:09:56;;;;;;;0.32;0.32;;;;;;;26.73;33.95;102180.38;5020541;28;20030;-83
2021/06/14 09:12:22;;;;;;;0.80;0.80;;;;;;;26.88;33.25;102166.72;5014034;28;20022;-82
2021/06/14 09:14:49;;;;;;;0.20;0.20;;;;;;;26.90;33.18;102170.22;5013763;28;20401;-82
2021/06/14 09:17:17;;;;;;;0.17;0.17;;;;;;;27.10;32.21;102167.00;5031953;28;20029;-82
2021/06/14 09:19:55;;;;;;;0.93;0.57;;;;;;;27.21;32.11;102159.94;5014176;28;20061;-82
2021/06/14 09:22:23;;;;;;;6.47;1.65;;;;;;;27.17;32.20;102159.28;5014792;28;20097;-83
2021/06/14 09:24:59;;;;;;;0.08;0.08;;;;;;;27.34;33.06;102166.25;5014682;28;20104;-80
2021/06/14 09:27:43;;;;;;;0.00;0.00;;;;;;;27.50;32.53;102151.59;5014300;28;20034;-82
2021/06/14 09:35:43;;;;;;;0.10;0.10;;;;;;;27.79;31.45;102146.78;5067775;27;20164;-81
2021/06/14 09:38:14;;;;;;;0.10;0.10;;;;;;;27.90;31.57;102148.69;5047300;28;20021;-81
2021/06/14 09:46:01;;;;;;;0.10;0.10;;;;;;;28.01;29.24;102129.69;5090614;27;20135;-81
2021/06/14 09:48:29;;;;;;;0.20;0.20;;;;;;;28.21;29.78;102130.09;5050389;28;20052;-79
2021/06/14 09:50:57;;;;;;;0.45;0.45;;;;;;;28.11;29.84;102123.59;5050478;28;20037;-79
2021/06/14 09:53:26;;;;;;;0.30;0.30;;;;;;;28.16;30.21;102115.97;5050008;28;20025;-79
2021/06/14 09:55:53;;;;;;;0.00;0.00;;;;;;;28.30;32.43;102123.09;5050056;28;20444;-80
2021/06/14 09:58:22;;;;;;;0.10;0.10;;;;;;;28.46;30.68;102117.34;5048955;28;20035;-81
2021/06/14 10:09:13;;;;;;;0.10;0.10;;;;;;;28.91;29.57;102120.25;5073169;27;20607;-79
2021/06/14 10:11:41;;;;;;;0.45;0.43;;;;;;;29.06;29.63;102112.75;5052620;28;20138;-79
2021/06/14 10:14:11;;;;;;;0.10;0.10;;;;;;;29.10;28.91;102105.16;5050965;28;20052;-81
2021/06/14 10:16:38;;;;;;;1.98;0.65;;;;;;;29.05;28.03;102105.56;5049269;28;20476;-82
2021/06/14 10:19:08;;;;;;;0.30;0.30;;;;;;;29.17;26.12;102101.84;5049182;28;20026;-81
2021/06/14 10:21:37;;;;;;;0.35;0.35;;;;;;;29.31;26.59;102105.34;5039315;28;20045;-81
2021/06/14 10:24:07;;;;;;;0.00;0.00;;;;;;;29.32;26.43;102102.50;5036415;28;20495;-81
2021/06/14 10:26:36;;;;;;;0.00;0.00;;;;;;;29.42;26.54;102102.59;5050878;28;20480;-81
2021/06/14 10:29:06;;;;;;;0.00;0.00;;;;;;;29.55;27.12;102099.78;5051170;28;20040;-81
2021/06/14 10:31:34;;;;;;;0.10;0.10;;;;;;;29.56;26.67;102101.53;5051645;28;20461;-81
2021/06/14 10:34:02;;;;;;;0.20;0.20;;;;;;;29.65;26.05;102099.91;5050356;28;20033;-81
2021/06/14 10:36:29;;;;;;;0.00;0.00;;;;;;;29.77;26.11;102098.88;5050953;28;20029;-81
2021/06/14 10:38:57;;;;;;;0.10;0.10;;;;;;;29.81;24.86;102099.50;5050032;28;20037;-81
2021/06/14 10:41:24;;;;;;;1.98;0.43;;;;;;;30.02;25.66;102103.22;5050759;28;20094;-81
2021/06/14 10:43:52;;;;;;;0.57;0.57;;;;;;;29.97;26.35;102104.56;5050570;28;20033;-81
2021/06/14 10:46:20;;;;;;;0.10;0.10;;;;;;;30.05;26.23;102102.09;5050595;28;20072;-81
2021/06/14 10:48:52;;;;;;;0.32;0.32;;;;;;;30.20;25.44;102099.94;5050713;28;20060;-81
2021/06/14 10:51:21;;;;;;;0.00;0.00;;;;;;;30.33;24.76;102094.28;5042750;28;20029;-81
2021/06/14 10:53:51;;;;;;;0.00;0.00;;;;;;;30.35;25.95;102097.75;5032593;28;20045;-81
2021/06/14 10:56:20;;;;;;;0.00;0.00;;;;;;;30.50;26.14;102090.16;5043698;28;20422;-83
2021/06/14 10:59:04;;;;;;;0.20;0.15;;;;;;;30.64;24.93;102098.03;5049943;28;20395;-81
2021/06/14 11:04:30;;;;;;;0.20;0.20;;;;;;;30.52;24.15;102101.84;5090933;27;73845;-81
2021/06/14 11:06:59;;;;;;;0.15;0.15;;;;;;;30.51;24.27;102089.16;5099568;28;20036;-81
2021/06/14 11:09:38;;;;;;;0.00;0.00;;;;;;;30.72;25.51;102099.22;5091630;28;20442;-81
2021/06/14 11:12:07;;;;;;;0.00;0.00;;;;;;;30.58;26.61;102087.63;5091089;28;20560;-81
2021/06/14 11:17:27;;;;;;;1.55;0.32;;;;;;;30.74;25.62;102086.28;5073236;27;20168;-81
2021/06/14 11:28:06;;;;;;;0.10;0.10;;;;;;;31.28;27.15;102082.47;5089659;27;20511;-80
2021/06/14 11:30:36;;;;;;;0.30;0.30;;;;;;;31.47;25.07;102083.53;5089957;28;20036;-80
2021/06/14 11:33:04;;;;;;;0.30;0.30;;;;;;;31.51;25.41;102079.50;5091123;28;20032;-81
2021/06/14 11:35:33;;;;;;;0.10;0.10;;;;;;;31.55;24.85;102075.47;5090609;28;20025;-80
2021/06/14 11:38:01;;;;;;;0.30;0.30;;;;;;;31.69;25.51;102076.13;5070714;28;20041;-80
2021/06/14 11:40:30;;;;;;;0.22;0.22;;;;;;;31.52;23.14;102086.72;5071505;28;20033;-80
2021/06/14 11:43:07;;;;;;;0.60;0.30;;;;;;;31.33;23.15;102079.31;5070983;28;20115;-80
2021/06/14 11:45:38;;;;;;;0.30;0.30;;;;;;;31.27;23.68;102077.97;5070428;28;20029;-80
2021/06/14 11:48:17;;;;;;;0.43;0.43;;;;;;;31.25;24.46;102074.50;5070251;28;20060;-81
2021/06/14 11:50:43;;;;;;;0.15;0.15;;;;;;;31.46;24.47;102077.19;5070948;28;20036;-80
2021/06/14 11:53:10;;;;;;;0.10;0.10;;;;;;;31.68;23.77;102068.91;5070214;28;20495;-80
2021/06/14 11:55:41;;;;;;;0.20;0.20;;;;;;;31.93;23.72;102068.41;5071164;28;20113;-81
2021/06/14 11:58:09;;;;;;;0.22;0.22;;;;;;;32.02;26.20;102065.84;5070626;28;20029;-80
2021/06/14 12:00:40;;;;;;;0.00;0.00;;;;;;;32.25;25.09;102061.84;5071103;28;20036;-80
2021/06/14 12:03:24;;;;;;;0.30;0.30;;;;;;;31.79;23.59;102074.31;5069235;28;20033;-80
2021/06/14 12:05:53;;;;;;;0.50;0.50;;;;;;;31.85;23.92;102068.28;5070964;28;20037;-80
2021/06/14 12:08:21;;;;;;;0.40;0.40;;;;;;;31.76;24.50;102066.34;5069893;28;20332;-80